Time;durP1;ratioP1;P1;durP2;ratioP2;P2;SDS_P1;SDS_P2;PMS_P1;PMS_P2;Temp;Humidity;BMP_temperature;BMP_pressure;BME280_temperature;BME280_humidity;BME280_pressure;Samples;Min_cycle;Max_cycle;Signal;HPM_P1;HPM_P2
2022/09/08 00:00:57;;;;;;;20.55;13.75;;;16.50;99.90;;;;;;5029952;28;20043;-68
2022/09/08 00:03:25;;;;;;;21.92;13.57;;;16.50;99.90;;;;;;5027153;28;20028;-68
2022/09/08 00:05:59;;;;;;;23.23;14.35;;;16.40;99.90;;;;;;5027203;28;20025;-68
2022/09/08 00:08:24;;;;;;;23.30;14.35;;;16.30;99.90;;;;;;5029456;28;20017;-68
2022/09/08 00:10:57;;;;;;;24.77;14.75;;;16.20;99.90;;;;;;5026669;28;20034;-68
2022/09/08 00:13:25;;;;;;;21.60;14.18;;;16.10;99.90;;;;;;5029620;28;20022;-68
2022/09/08 00:15:52;;;;;;;22.58;14.88;;;16.00;99.90;;;;;;5028484;28;20395;-68
2022/09/08 00:18:18;;;;;;;19.50;13.43;;;16.00;99.90;;;;;;5023919;28;20026;-68
2022/09/08 00:20:44;;;;;;;21.25;13.30;;;16.00;99.90;;;;;;5028270;28;20531;-67
2022/09/08 00:23:11;;;;;;;20.90;12.65;;;16.20;99.90;;;;;;5021516;28;20021;-68
2022/09/08 00:25:36;;;;;;;20.92;13.05;;;16.10;99.90;;;;;;5027652;28;20025;-67
2022/09/08 00:28:02;;;;;;;22.45;13.35;;;16.00;99.90;;;;;;5026439;28;20041;-67
2022/09/08 00:30:28;;;;;;;19.77;13.55;;;15.90;99.90;;;;;;5025964;28;20160;-67
2022/09/08 00:32:53;;;;;;;23.25;15.07;;;15.80;99.90;;;;;;5027920;28;20474;-68
2022/09/08 00:35:20;;;;;;;21.02;13.57;;;15.80;99.90;;;;;;5025624;28;20029;-68
2022/09/08 00:37:46;;;;;;;23.52;14.30;;;15.80;99.90;;;;;;5031834;28;20497;-67
2022/09/08 00:40:13;;;;;;;22.33;14.77;;;15.90;99.90;;;;;;5024583;28;20068;-67
2022/09/08 00:42:39;;;;;;;22.77;14.32;;;15.90;99.90;;;;;;5029197;28;20029;-68
2022/09/08 00:45:05;;;;;;;21.45;14.35;;;15.90;99.90;;;;;;5030213;28;20029;-68
2022/09/08 00:47:40;;;;;;;19.85;13.43;;;16.00;99.90;;;;;;5025729;28;20029;-67
2022/09/08 00:50:12;;;;;;;19.02;12.57;;;16.10;99.90;;;;;;5031849;28;20037;-67
2022/09/08 00:53:03;;;;;;;19.90;11.90;;;16.20;99.90;;;;;;5030947;28;20025;-67
2022/09/08 00:55:32;;;;;;;17.33;11.10;;;16.30;99.90;;;;;;5030441;28;20116;-67
2022/09/08 00:57:58;;;;;;;17.48;10.98;;;16.40;99.90;;;;;;5030068;28;20033;-67
2022/09/08 01:00:24;;;;;;;18.73;10.75;;;16.50;99.90;;;;;;5025258;28;20037;-68
2022/09/08 01:02:50;;;;;;;16.58;10.10;;;16.50;99.90;;;;;;5030894;28;20026;-67
2022/09/08 01:05:19;;;;;;;15.23;9.82;;;16.60;99.90;;;;;;5028842;28;20041;-67
2022/09/08 01:14:06;;;;;;;15.68;9.05;;;16.60;99.90;;;;;;5022135;28;20060;-67
2022/09/08 01:16:42;;;;;;;13.38;8.30;;;16.70;99.90;;;;;;5028895;28;20340;-67
2022/09/08 01:19:23;;;;;;;13.93;8.50;;;16.70;99.90;;;;;;5022882;28;20092;-67
2022/09/08 01:22:13;;;;;;;12.32;8.02;;;16.70;99.90;;;;;;5030472;28;20049;-68
2022/09/08 01:24:51;;;;;;;;;;;16.70;99.90;;;;;;5026775;28;20021;-68
2022/09/08 01:27:27;;;;;;;13.27;8.07;;;16.80;99.90;;;;;;5033321;28;19917;-68
2022/09/08 01:30:07;;;;;;;15.20;8.52;;;16.90;99.90;;;;;;5027657;28;20017;-68
2022/09/08 01:32:35;;;;;;;15.50;9.80;;;16.90;99.90;;;;;;5030008;28;20072;-67
2022/09/08 01:35:01;;;;;;;15.20;10.45;;;16.90;99.90;;;;;;5030442;28;20460;-67
2022/09/08 01:37:28;;;;;;;15.35;10.60;;;16.90;99.90;;;;;;5031794;28;20113;-68
2022/09/08 01:39:53;;;;;;;15.88;10.90;;;16.90;99.90;;;;;;5030309;28;20025;-68
2022/09/08 01:42:19;;;;;;;17.33;10.40;;;16.80;99.90;;;;;;5029005;28;20022;-68
2022/09/08 01:44:45;;;;;;;17.70;10.70;;;16.80;99.90;;;;;;5030438;28;20025;-68
2022/09/08 01:47:11;;;;;;;18.48;11.05;;;16.70;99.90;;;;;;5030274;28;20021;-68
2022/09/08 01:49:37;;;;;;;17.85;11.05;;;16.70;99.90;;;;;;5030119;28;20032;-67
2022/09/08 01:52:03;;;;;;;16.10;11.07;;;16.70;99.90;;;;;;5030702;28;20025;-67
2022/09/08 01:54:29;;;;;;;19.23;10.82;;;16.60;99.90;;;;;;5030155;28;20029;-67
2022/09/08 01:56:55;;;;;;;15.50;10.77;;;16.60;99.90;;;;;;5029948;28;20044;-68
2022/09/08 01:59:21;;;;;;;15.68;10.20;;;16.60;99.90;;;;;;5029048;28;20035;-68
2022/09/08 02:01:47;;;;;;;16.33;9.57;;;16.60;99.90;;;;;;5030153;28;20033;-68
2022/09/08 02:04:13;;;;;;;15.10;9.63;;;16.60;99.90;;;;;;5028879;28;20029;-68
2022/09/08 02:06:38;;;;;;;15.27;9.27;;;16.60;99.90;;;;;;5029579;28;20465;-68
2022/09/08 02:09:05;;;;;;;17.52;9.82;;;16.60;99.90;;;;;;5027056;28;20521;-68
2022/09/08 02:11:31;;;;;;;16.15;10.07;;;16.70;99.90;;;;;;5025514;28;20539;-68
2022/09/08 02:13:56;;;;;;;12.93;8.65;;;16.80;99.90;;;;;;5029197;28;20030;-68
2022/09/08 02:16:23;;;;;;;15.85;9.02;;;17.00;99.90;;;;;;5041136;28;20557;-68
2022/09/08 02:18:49;;;;;;;13.07;8.45;;;17.10;99.90;;;;;;5020679;28;20032;-68
2022/09/08 02:21:17;;;;;;;13.15;8.60;;;17.00;99.90;;;;;;5027821;28;20104;-68
2022/09/08 02:23:45;;;;;;;12.13;8.10;;;17.00;99.90;;;;;;5029355;28;20060;-68
2022/09/08 02:26:23;;;;;;;12.32;7.80;;;17.00;99.90;;;;;;5028103;28;20421;-67
2022/09/08 02:28:51;;;;;;;14.77;8.52;;;17.00;99.90;;;;;;5020099;28;20029;-67
2022/09/08 02:31:18;;;;;;;12.85;7.72;;;17.00;99.90;;;;;;5027761;28;20014;-67
2022/09/08 02:33:43;;;;;;;14.60;8.57;;;16.90;99.90;;;;;;5044109;28;20056;-69
2022/09/08 02:36:09;;;;;;;11.85;7.80;;;17.00;99.90;;;;;;5028979;28;20065;-68
2022/09/08 02:38:36;;;;;;;13.43;7.78;;;17.00;99.90;;;;;;5027944;28;20508;-68
2022/09/08 02:41:01;;;;;;;12.45;7.50;;;16.90;99.90;;;;;;5027444;28;20440;-68
2022/09/08 02:43:29;;;;;;;13.52;7.78;;;17.00;99.90;;;;;;5044670;28;20042;-68
2022/09/08 02:45:54;;;;;;;14.07;7.75;;;17.10;99.90;;;;;;5024574;28;20087;-68
2022/09/08 02:48:20;;;;;;;13.85;7.70;;;17.20;99.90;;;;;;5026432;28;20411;-68
2022/09/08 02:50:46;;;;;;;12.65;7.57;;;17.20;99.90;;;;;;5029493;28;20029;-68
2022/09/08 02:53:11;;;;;;;15.80;7.65;;;17.30;99.90;;;;;;5027982;28;20100;-68
2022/09/08 02:55:39;;;;;;;10.80;6.75;;;17.30;99.90;;;;;;5026243;28;20496;-68
2022/09/08 02:58:07;;;;;;;15.82;6.95;;;17.40;99.90;;;;;;5031347;28;20466;-67
2022/09/08 03:00:33;;;;;;;13.15;6.43;;;17.50;99.90;;;;;;5027779;28;20138;-67
2022/09/08 03:02:59;;;;;;;10.75;6.05;;;17.60;99.90;;;;;;5026412;28;20037;-67
2022/09/08 03:05:25;;;;;;;10.05;6.30;;;17.70;99.90;;;;;;5028802;28;20033;-68
2022/09/08 03:07:51;;;;;;;10.90;6.00;;;17.70;99.90;;;;;;5022699;28;20021;-68
2022/09/08 03:10:20;;;;;;;11.32;5.75;;;17.70;99.90;;;;;;5029359;28;20048;-68
2022/09/08 03:12:46;;;;;;;11.73;6.10;;;17.60;99.90;;;;;;5019922;28;20109;-68
2022/09/08 03:15:12;;;;;;;11.13;5.93;;;17.60;99.90;;;;;;5018660;28;20113;-68
2022/09/08 03:17:38;;;;;;;8.82;5.55;;;17.60;99.90;;;;;;5025396;28;20028;-68
2022/09/08 03:20:04;;;;;;;10.68;5.45;;;17.60;99.90;;;;;;5026895;28;20038;-67
2022/09/08 03:22:29;;;;;;;8.82;5.20;;;17.70;99.90;;;;;;5043847;28;20128;-68
2022/09/08 03:24:55;;;;;;;9.77;5.35;;;17.70;99.90;;;;;;5043234;28;20076;-68
2022/09/08 03:27:21;;;;;;;10.18;4.82;;;17.70;99.90;;;;;;5045677;28;20034;-67
2022/09/08 03:29:47;;;;;;;11.50;5.30;;;17.70;99.90;;;;;;5044491;28;20080;-67
2022/09/08 03:32:12;;;;;;;10.27;5.05;;;17.70;99.90;;;;;;5028812;28;20052;-67
2022/09/08 03:34:38;;;;;;;9.20;5.10;;;17.70;99.90;;;;;;5043569;28;20075;-68
2022/09/08 03:37:03;;;;;;;10.82;5.20;;;17.60;99.90;;;;;;5028462;28;20036;-67
2022/09/08 03:39:29;;;;;;;9.55;4.90;;;17.50;99.90;;;;;;5028799;28;20037;-67
2022/09/08 03:41:55;;;;;;;10.13;5.85;;;17.60;99.90;;;;;;5026339;28;20399;-67
2022/09/08 03:44:20;;;;;;;10.88;6.25;;;17.60;99.90;;;;;;5039680;28;20233;-67
2022/09/08 03:46:46;;;;;;;11.60;6.10;;;17.50;99.90;;;;;;5020460;28;20104;-67
2022/09/08 03:49:12;;;;;;;11.70;5.47;;;17.40;99.90;;;;;;5028915;28;20064;-67
2022/09/08 03:51:38;;;;;;;10.13;5.78;;;17.40;99.90;;;;;;5029087;28;20465;-67
2022/09/08 03:56:51;;;;;;;9.70;4.68;;;17.40;99.90;;;;;;5028722;28;20064;-67
2022/09/08 03:59:17;;;;;;;9.50;4.60;;;17.50;99.90;;;;;;5030630;28;20025;-67
2022/09/08 04:01:42;;;;;;;10.00;5.25;;;17.50;99.90;;;;;;5041794;28;20036;-68
2022/09/08 04:04:08;;;;;;;11.40;5.40;;;17.50;99.90;;;;;;5028592;28;20531;-67
2022/09/08 04:06:34;;;;;;;11.55;5.20;;;17.40;99.90;;;;;;5029092;28;20045;-67
2022/09/08 04:09:00;;;;;;;8.07;4.43;;;17.50;99.90;;;;;;5029853;28;20037;-67
2022/09/08 04:11:25;;;;;;;8.38;3.85;;;17.70;99.90;;;;;;5029512;28;20022;-67
2022/09/08 04:13:51;;;;;;;9.82;4.35;;;17.70;99.90;;;;;;5024781;28;20435;-67
2022/09/08 04:16:17;;;;;;;9.60;4.25;;;17.80;99.90;;;;;;5032779;28;20051;-67
2022/09/08 04:18:44;;;;;;;14.27;5.30;;;17.80;99.90;;;;;;5034736;28;20025;-67
2022/09/08 04:21:10;;;;;;;9.88;4.57;;;17.70;99.90;;;;;;5039213;28;20054;-66
2022/09/08 04:23:37;;;;;;;13.85;5.15;;;17.40;99.90;;;;;;5033621;28;20103;-67
2022/09/08 04:26:07;;;;;;;13.02;5.97;;;17.00;99.90;;;;;;5050903;28;20041;-67
2022/09/08 04:28:34;;;;;;;11.98;5.30;;;16.70;99.90;;;;;;5035524;28;20489;-68
2022/09/08 04:31:03;;;;;;;19.85;5.47;;;16.60;99.90;;;;;;5045076;28;20078;-67
2022/09/08 04:33:30;;;;;;;11.57;5.72;;;16.40;99.90;;;;;;5035551;28;20022;-67
2022/09/08 04:35:56;;;;;;;13.20;5.78;;;16.40;99.90;;;;;;5027250;28;20037;-67
2022/09/08 04:38:21;;;;;;;15.02;6.05;;;16.30;99.90;;;;;;5032127;28;20030;-67
2022/09/08 04:40:47;;;;;;;12.13;5.47;;;16.30;99.90;;;;;;5026860;28;20022;-66
2022/09/08 04:43:13;;;;;;;12.45;5.35;;;16.20;99.90;;;;;;5034755;28;20081;-66
2022/09/08 04:45:38;;;;;;;14.90;5.70;;;16.20;99.90;;;;;;5035221;28;20044;-66
2022/09/08 04:48:04;;;;;;;13.80;5.50;;;16.10;99.90;;;;;;5036274;28;20022;-66
2022/09/08 04:50:29;;;;;;;13.88;6.13;;;16.10;99.90;;;;;;5031014;28;20045;-66
2022/09/08 04:52:55;;;;;;;14.23;5.90;;;16.00;99.90;;;;;;5034091;28;20068;-67
2022/09/08 04:55:21;;;;;;;13.90;6.35;;;16.00;99.90;;;;;;5030579;28;20022;-67
2022/09/08 04:57:47;;;;;;;12.20;5.60;;;16.10;99.90;;;;;;5035388;28;20037;-67
2022/09/08 05:00:13;;;;;;;14.05;5.32;;;16.00;99.90;;;;;;5035447;28;20469;-67
2022/09/08 05:02:39;;;;;;;12.00;5.10;;;16.00;99.90;;;;;;5035761;28;20392;-67
2022/09/08 05:05:05;;;;;;;13.05;4.78;;;16.00;99.90;;;;;;5034505;28;20078;-67
2022/09/08 05:07:31;;;;;;;11.80;4.47;;;16.00;99.90;;;;;;5034645;28;20461;-67
2022/09/08 05:09:57;;;;;;;14.18;4.57;;;16.00;99.90;;;;;;5031386;28;20029;-67
2022/09/08 05:12:23;;;;;;;9.32;4.30;;;16.00;99.90;;;;;;5028499;28;20106;-67
2022/09/08 05:14:49;;;;;;;9.55;5.00;;;16.00;99.90;;;;;;5031464;28;20051;-67
2022/09/08 05:17:15;;;;;;;12.70;5.15;;;16.00;99.90;;;;;;5033683;28;20076;-68
2022/09/08 05:19:40;;;;;;;10.60;4.80;;;16.00;99.90;;;;;;5049302;28;20025;-67
2022/09/08 05:22:06;;;;;;;10.93;5.00;;;16.00;99.90;;;;;;5048782;28;20041;-67
2022/09/08 05:24:32;;;;;;;10.88;4.72;;;16.00;99.90;;;;;;5035028;28;20532;-67
2022/09/08 05:26:57;;;;;;;11.55;4.20;;;15.90;99.90;;;;;;5042932;28;20066;-67
2022/09/08 05:29:23;;;;;;;15.95;5.10;;;16.00;99.90;;;;;;5031035;28;20030;-67
2022/09/08 05:31:48;;;;;;;10.90;4.45;;;16.00;99.90;;;;;;5044557;28;20060;-67
2022/09/08 05:34:14;;;;;;;10.32;4.72;;;15.90;99.90;;;;;;5023062;28;20465;-67
2022/09/08 05:36:40;;;;;;;11.57;4.50;;;15.90;99.90;;;;;;5031481;28;20117;-67
2022/09/08 05:39:06;;;;;;;12.93;4.38;;;15.90;99.90;;;;;;5027668;28;20470;-67
2022/09/08 05:41:33;;;;;;;9.98;4.53;;;15.90;99.90;;;;;;5049151;28;20029;-67
2022/09/08 05:43:59;;;;;;;10.77;4.68;;;16.00;99.90;;;;;;5044102;28;20094;-65
2022/09/08 05:46:27;;;;;;;8.80;4.22;;;15.90;99.90;;;;;;5034088;28;20033;-65
2022/09/08 05:49:01;;;;;;;8.30;3.85;;;15.90;99.90;;;;;;5030832;28;20162;-65
2022/09/08 05:51:28;;;;;;;9.38;4.10;;;16.00;99.90;;;;;;5043134;28;20092;-65
2022/09/08 05:53:58;;;;;;;11.25;4.47;;;16.00;99.90;;;;;;5029650;28;20458;-66
2022/09/08 05:56:24;;;;;;;10.85;4.55;;;16.00;99.90;;;;;;5029178;28;20365;-65
2022/09/08 05:58:54;;;;;;;10.27;4.97;;;16.00;99.90;;;;;;5025582;28;20029;-65
2022/09/08 06:01:20;;;;;;;9.75;4.70;;;16.00;99.90;;;;;;5023528;28;20021;-65
2022/09/08 06:03:51;;;;;;;10.98;4.20;;;16.00;99.90;;;;;;5026477;28;20337;-65
2022/09/08 06:06:17;;;;;;;;;;;16.00;99.90;;;;;;5024795;28;20037;-65
2022/09/08 06:08:42;;;;;;;10.05;4.47;;;16.00;99.90;;;;;;5026924;28;19905;-65
2022/09/08 06:11:09;;;;;;;11.23;4.70;;;16.00;99.90;;;;;;5033114;28;20489;-66
2022/09/08 06:13:36;;;;;;;11.73;4.80;;;16.00;99.90;;;;;;5033525;28;20025;-64
2022/09/08 06:16:02;;;;;;;10.90;4.90;;;16.00;99.90;;;;;;5022967;28;20412;-63
2022/09/08 06:18:31;;;;;;;13.13;4.75;;;16.00;99.90;;;;;;5030633;28;20037;-63
2022/09/08 06:20:56;;;;;;;12.02;5.55;;;16.00;99.90;;;;;;5026005;28;20045;-64
2022/09/08 06:23:22;;;;;;;10.27;5.32;;;16.00;99.90;;;;;;5024423;28;20747;-65
2022/09/08 06:25:47;;;;;;;11.82;4.85;;;16.00;99.90;;;;;;5028087;28;20067;-65
2022/09/08 06:28:41;;;;;;;8.77;4.60;;;16.10;99.90;;;;;;5035313;28;20044;-66
2022/09/08 06:31:10;;;;;;;11.77;4.85;;;16.10;99.90;;;;;;5032589;28;20041;-63
2022/09/08 06:33:40;;;;;;;11.73;5.30;;;16.10;99.90;;;;;;5027691;28;20045;-64
2022/09/08 06:36:27;;;;;;;10.82;5.30;;;16.10;99.90;;;;;;5030368;28;20056;-65
2022/09/08 06:39:03;;;;;;;10.98;4.75;;;16.20;99.90;;;;;;5031331;28;20107;-66
2022/09/08 06:41:39;;;;;;;10.35;4.90;;;16.20;99.90;;;;;;5043608;28;20052;-65
2022/09/08 06:44:11;;;;;;;11.32;4.75;;;16.20;99.90;;;;;;5032659;28;20048;-66
2022/09/08 06:46:39;;;;;;;9.80;4.78;;;16.10;99.90;;;;;;5031622;28;20051;-65
2022/09/08 06:49:07;;;;;;;11.30;5.13;;;16.00;99.90;;;;;;5031671;28;20014;-66
2022/09/08 06:51:58;;;;;;;11.23;5.20;;;16.00;99.90;;;;;;5034902;28;20207;-66
2022/09/08 06:54:30;;;;;;;12.43;5.50;;;16.10;99.90;;;;;;5032770;28;20020;-65
2022/09/08 06:57:32;;;;;;;11.35;5.50;;;16.20;99.90;;;;;;5049100;28;20029;-65
2022/09/08 07:00:07;;;;;;;11.82;5.32;;;16.20;99.90;;;;;;5033219;28;20469;-65
2022/09/08 07:03:35;;;;;;;10.88;4.80;;;16.30;99.90;;;;;;5028175;28;20018;-65
2022/09/08 07:06:09;;;;;;;10.73;5.07;;;16.30;99.90;;;;;;4916053;29;20139;-65
2022/09/08 07:08:43;;;;;;;11.13;5.43;;;16.30;99.90;;;;;;4914287;29;20081;-65
2022/09/08 07:11:46;;;;;;;13.25;5.60;;;16.30;99.90;;;;;;4907372;29;20384;-66
2022/09/08 07:14:32;;;;;;;11.35;5.70;;;16.30;99.90;;;;;;4905437;29;20024;-66
2022/09/08 07:17:15;;;;;;;15.43;5.82;;;16.30;99.90;;;;;;4910923;29;20087;-65
2022/09/08 07:19:54;;;;;;;11.25;5.55;;;16.40;99.90;;;;;;4911467;29;20031;-67
2022/09/08 07:22:31;;;;;;;10.68;4.90;;;16.40;99.90;;;;;;4912621;29;20052;-66
2022/09/08 07:25:06;;;;;;;11.45;5.38;;;16.40;99.90;;;;;;4911389;29;20031;-66
2022/09/08 07:27:33;;;;;;;9.82;5.15;;;16.40;99.90;;;;;;4911766;29;20527;-66
2022/09/08 07:30:02;;;;;;;12.02;5.20;;;16.40;99.90;;;;;;4912321;29;20518;-66
2022/09/08 07:32:32;;;;;;;12.77;5.63;;;16.40;99.90;;;;;;4913464;29;20039;-66
2022/09/08 07:35:04;;;;;;;14.75;5.70;;;16.40;99.90;;;;;;4903051;29;20032;-66
2022/09/08 07:37:49;;;;;;;15.65;5.72;;;16.50;99.90;;;;;;4913941;29;20039;-66
2022/09/08 07:40:19;;;;;;;14.95;5.45;;;16.50;99.90;;;;;;4912779;29;20032;-66
2022/09/08 07:42:58;;;;;;;12.98;5.53;;;16.50;99.90;;;;;;5015722;28;20099;-66
2022/09/08 07:45:48;;;;;;;11.60;5.28;;;15.40;99.90;;;;;;5015480;28;20511;-66
2022/09/08 07:48:25;;;;;;;11.50;6.15;;;16.60;99.90;;;;;;5013054;28;20025;-66
2022/09/08 07:51:16;;;;;;;10.57;5.43;;;16.60;99.90;;;;;;5028631;28;20112;-66
2022/09/08 07:54:15;;;;;;;11.68;5.60;;;16.60;99.90;;;;;;5030191;28;20046;-66
2022/09/08 07:57:24;;;;;;;11.50;5.57;;;16.70;99.90;;;;;;5010098;28;20029;-66
2022/09/08 08:00:11;;;;;;;11.10;5.90;;;16.70;99.90;;;;;;5023605;28;20061;-66
2022/09/08 08:02:48;;;;;;;13.35;6.22;;;16.80;99.90;;;;;;5014966;28;20029;-66
2022/09/08 08:05:30;;;;;;;12.35;6.20;;;16.80;99.90;;;;;;5029793;28;20034;-66
2022/09/08 08:08:11;;;;;;;12.80;5.80;;;16.80;99.90;;;;;;5022699;28;20033;-66
2022/09/08 08:10:49;;;;;;;12.43;6.38;;;16.80;99.90;;;;;;5026897;28;20266;-66
2022/09/08 08:13:25;;;;;;;11.30;5.60;;;16.90;99.90;;;;;;5035173;28;20031;-66
2022/09/08 08:16:08;;;;;;;12.52;6.20;;;17.10;99.90;;;;;;5028231;28;20080;-66
2022/09/08 08:18:49;;;;;;;11.85;5.90;;;17.10;99.90;;;;;;5034560;28;20041;-66
2022/09/08 08:21:34;;;;;;;12.38;6.30;;;17.10;99.90;;;;;;5032269;28;20041;-66
2022/09/08 08:24:36;;;;;;;10.95;5.57;;;17.20;99.90;;;;;;5047767;28;20502;-66
2022/09/08 08:27:23;;;;;;;11.75;6.32;;;17.10;99.90;;;;;;5028795;28;20022;-66
2022/09/08 08:30:03;;;;;;;10.63;5.60;;;17.10;99.90;;;;;;5028800;28;20083;-66
2022/09/08 08:32:42;;;;;;;10.82;5.63;;;17.00;99.90;;;;;;5027102;28;20116;-66
2022/09/08 08:35:26;;;;;;;11.90;5.78;;;17.00;99.90;;;;;;5034706;28;20029;-66
2022/09/08 08:37:53;;;;;;;12.60;5.55;;;17.00;99.90;;;;;;5032869;28;20034;-66
2022/09/08 08:40:33;;;;;;;11.07;5.75;;;17.00;99.90;;;;;;5032472;28;20033;-66
2022/09/08 08:43:04;;;;;;;;;;;17.00;99.90;;;;;;5034355;28;20099;-66
2022/09/08 08:46:17;;;;;;;10.00;4.70;;;16.90;99.90;;;;;;5032019;28;19913;-65
2022/09/08 08:49:00;;;;;;;11.80;5.07;;;16.80;99.90;;;;;;5003639;28;20473;-65
2022/09/08 08:51:53;;;;;;;11.93;5.80;;;16.80;99.90;;;;;;4999978;28;20034;-65
2022/09/08 08:54:19;;;;;;;11.25;5.38;;;16.40;99.90;;;;;;5010684;28;20030;-66
2022/09/08 08:57:08;;;;;;;12.15;4.88;;;16.40;99.90;;;;;;5002451;28;20605;-65
2022/09/08 08:59:54;;;;;;;13.75;6.00;;;16.40;99.90;;;;;;5007604;28;20046;-66
2022/09/08 09:02:37;;;;;;;12.02;5.60;;;16.50;99.90;;;;;;5005904;28;20038;-65
2022/09/08 09:05:18;;;;;;;10.00;5.10;;;16.50;99.90;;;;;;5008383;28;20538;-66
2022/09/08 09:08:05;;;;;;;13.02;5.63;;;16.50;99.90;;;;;;5001304;28;20113;-66
2022/09/08 09:10:42;;;;;;;13.35;5.72;;;16.50;99.90;;;;;;5004199;28;20058;-66
2022/09/08 09:13:29;;;;;;;15.25;5.85;;;16.80;99.90;;;;;;5006315;28;20057;-65
2022/09/08 09:16:00;;;;;;;11.20;5.43;;;17.10;99.90;;;;;;4989605;28;20045;-65
2022/09/08 09:18:44;;;;;;;16.52;5.40;;;17.10;99.90;;;;;;5004636;28;20544;-67
2022/09/08 09:21:19;;;;;;;12.70;5.20;;;17.10;99.90;;;;;;5041263;28;20445;-67
2022/09/08 09:24:01;;;;;;;12.45;4.80;;;17.30;99.90;;;;;;5025245;28;20426;-67
2022/09/08 09:26:34;;;;;;;9.18;3.72;;;17.30;99.90;;;;;;5030530;28;20025;-67
2022/09/08 09:29:14;;;;;;;10.75;4.82;;;17.10;99.90;;;;;;5032443;28;20029;-67
2022/09/08 09:32:04;;;;;;;10.75;4.93;;;17.10;99.90;;;;;;5028659;28;20037;-67
2022/09/08 09:34:49;;;;;;;;;;;17.20;99.90;;;;;;5023559;28;20121;-66
2022/09/08 09:37:45;;;;;;;11.48;5.85;;;17.20;99.90;;;;;;5020701;28;19997;-68
2022/09/08 09:40:56;;;;;;;12.57;5.30;;;17.30;99.90;;;;;;5022926;28;20112;-67
2022/09/08 09:43:24;;;;;;;13.07;5.22;;;17.50;99.90;;;;;;5014453;28;20052;-67
2022/09/08 09:45:53;;;;;;;10.75;4.78;;;17.50;99.90;;;;;;5031413;28;20028;-67
2022/09/08 09:48:21;;;;;;;12.15;4.88;;;17.30;99.90;;;;;;5026874;28;20135;-67
2022/09/08 09:51:13;;;;;;;11.80;4.10;;;17.00;99.90;;;;;;5031914;28;20284;-67
2022/09/08 09:54:00;;;;;;;8.38;3.17;;;17.30;99.90;;;;;;5044287;28;20481;-67
2022/09/08 09:56:39;;;;;;;9.85;4.20;;;17.30;99.90;;;;;;5023637;28;20033;-67
2022/09/08 09:59:23;;;;;;;10.35;3.80;;;17.40;99.90;;;;;;5031030;28;20032;-67
2022/09/08 10:02:12;;;;;;;9.15;3.58;;;17.50;99.90;;;;;;5046482;28;20097;-68
2022/09/08 10:04:41;;;;;;;8.00;2.90;;;17.40;99.90;;;;;;5027323;28;20022;-68
2022/09/08 10:07:25;;;;;;;9.43;3.03;;;17.30;99.90;;;;;;5030433;28;20041;-68
2022/09/08 10:09:50;;;;;;;8.20;2.58;;;17.40;99.90;;;;;;5032918;28;20042;-68
2022/09/08 10:12:34;;;;;;;8.70;3.15;;;17.40;99.90;;;;;;5044730;28;20034;-68
2022/09/08 10:15:31;;;;;;;9.45;2.97;;;17.50;99.90;;;;;;5030107;28;20033;-68
2022/09/08 10:18:39;;;;;;;9.15;2.95;;;17.90;99.90;;;;;;5043652;28;20034;-68
2022/09/08 10:21:16;;;;;;;7.47;2.30;;;18.60;99.90;;;;;;5017125;28;20041;-68
2022/09/08 10:24:06;;;;;;;7.65;2.50;;;18.90;99.90;;;;;;5030831;28;20140;-68
2022/09/08 10:26:52;;;;;;;7.18;2.53;;;19.20;99.90;;;;;;5050641;28;20495;-68
2022/09/08 10:29:55;;;;;;;9.63;2.42;;;19.70;99.90;;;;;;5030524;28;20116;-68
2022/09/08 10:32:58;;;;;;;6.63;2.30;;;20.30;99.90;;;;;;5031626;28;20022;-68
2022/09/08 10:35:33;;;;;;;6.18;2.15;;;20.50;99.90;;;;;;5047258;28;20030;-68
2022/09/08 10:38:35;;;;;;;5.10;1.80;;;20.90;99.90;;;;;;5032710;28;20060;-68
2022/09/08 10:41:19;;;;;;;7.95;1.98;;;22.80;99.90;;;;;;5027002;28;20108;-68
2022/09/08 10:44:02;;;;;;;6.05;2.20;;;22.80;99.90;;;;;;5032788;28;20021;-68
2022/09/08 10:46:58;;;;;;;5.38;1.80;;;22.00;99.90;;;;;;5053647;28;20381;-68
2022/09/08 10:49:42;;;;;;;7.18;1.90;;;21.50;99.90;;;;;;5038895;28;20154;-68
2022/09/08 10:52:29;;;;;;;5.30;2.00;;;20.70;99.90;;;;;;5031745;28;20045;-68
2022/09/08 10:55:04;;;;;;;6.70;1.50;;;22.10;99.90;;;;;;5029292;28;20022;-68
2022/09/08 10:58:14;;;;;;;4.97;1.58;;;23.30;99.90;;;;;;5024415;28;20440;-68
2022/09/08 11:00:48;;;;;;;;;;;24.40;99.90;;;;;;5036892;28;20025;-68
2022/09/08 11:03:35;;;;;;;6.10;1.77;;;23.70;99.90;;;;;;5021885;28;19983;-68
2022/09/08 11:06:13;;;;;;;4.80;1.55;;;23.60;99.90;;;;;;5035672;28;20083;-68
2022/09/08 11:08:57;;;;;;;5.55;1.80;;;24.00;99.90;;;;;;5032152;28;20104;-68
2022/09/08 11:11:54;;;;;;;4.35;1.50;;;24.40;99.90;;;;;;5026881;28;20358;-68
2022/09/08 11:14:47;;;;;;;6.30;1.88;;;23.40;99.90;;;;;;5027341;28;20596;-68
2022/09/08 11:17:21;;;;;;;6.13;1.63;;;24.80;99.90;;;;;;5040797;28;20458;-68
2022/09/08 11:19:51;;;;;;;5.88;1.90;;;25.80;99.90;;;;;;5027244;28;20048;-68
2022/09/08 11:22:41;;;;;;;3.95;1.35;;;25.70;99.90;;;;;;5029507;28;20095;-69
2022/09/08 11:25:23;;;;;;;4.55;1.40;;;27.90;99.90;;;;;;5027937;28;20057;-69
2022/09/08 11:27:58;;;;;;;7.15;1.33;;;26.90;99.90;;;;;;5041009;28;20439;-68
2022/09/08 11:30:40;;;;;;;4.03;1.27;;;26.10;99.90;;;;;;5023757;28;20621;-68
2022/09/08 11:33:14;;;;;;;3.35;1.15;;;24.10;99.90;;;;;;5041801;28;20037;-68
2022/09/08 11:35:58;;;;;;;4.32;1.30;;;22.20;99.90;;;;;;5030977;28;20043;-68
2022/09/08 11:38:51;;;;;;;5.68;1.70;;;21.30;99.90;;;;;;5026918;28;20461;-67
2022/09/08 11:41:29;;;;;;;5.07;1.65;;;21.10;99.90;;;;;;5034928;28;20060;-68
2022/09/08 11:44:47;;;;;;;5.38;1.48;;;22.50;99.90;;;;;;5025660;28;20063;-68
2022/09/08 11:47:36;;;;;;;5.68;1.48;;;24.00;99.90;;;;;;5011603;28;20051;-68
2022/09/08 11:50:10;;;;;;;4.60;1.38;;;25.70;99.90;;;;;;5026380;28;20033;-68
2022/09/08 11:52:59;;;;;;;5.90;1.38;;;25.20;99.90;;;;;;5024646;28;20029;-68
2022/09/08 11:55:25;;;;;;;4.20;1.10;;;25.70;99.90;;;;;;5043418;28;20029;-68
2022/09/08 11:58:34;;;;;;;4.40;1.30;;;27.30;98.90;;;;;;5026354;28;20025;-68
2022/09/08 12:01:15;;;;;;;3.90;1.10;;;27.40;98.00;;;;;;5021423;28;20133;-68
2022/09/08 12:04:04;;;;;;;4.93;1.25;;;27.50;97.40;;;;;;5026762;28;20091;-68
2022/09/08 12:06:58;;;;;;;5.35;1.40;;;27.30;97.50;;;;;;5040664;28;20045;-68
2022/09/08 12:09:42;;;;;;;3.40;1.17;;;27.20;95.00;;;;;;5023090;28;20064;-68
2022/09/08 12:12:19;;;;;;;5.00;1.30;;;28.00;94.10;;;;;;5022268;28;20465;-68
2022/09/08 12:15:04;;;;;;;3.53;1.15;;;28.30;93.70;;;;;;5028573;28;20021;-68
2022/09/08 12:17:47;;;;;;;3.45;1.05;;;25.20;96.30;;;;;;5030181;28;20053;-68
2022/09/08 12:20:31;;;;;;;4.75;1.13;;;23.70;99.90;;;;;;5029487;28;20053;-68
2022/09/08 12:23:16;;;;;;;9.07;1.30;;;23.90;99.90;;;;;;5037102;28;20119;-68
2022/09/08 12:26:06;;;;;;;4.32;1.23;;;24.60;99.80;;;;;;5023284;28;20060;-67
2022/09/08 12:28:38;;;;;;;;;;;25.80;99.20;;;;;;5038642;28;20326;-67
2022/09/08 12:31:06;;;;;;;4.18;1.05;;;26.10;96.40;;;;;;5026843;28;19916;-67
2022/09/08 12:33:44;;;;;;;6.53;1.60;;;26.20;96.30;;;;;;5051429;28;20016;-67
2022/09/08 12:36:40;;;;;;;3.55;0.95;;;26.10;95.80;;;;;;5057130;28;20489;-68
2022/09/08 12:39:26;;;;;;;4.65;1.25;;;26.80;96.90;;;;;;5044367;28;20044;-67
2022/09/08 12:42:03;;;;;;;2.25;0.88;;;27.20;94.80;;;;;;5029968;28;20030;-67
2022/09/08 12:44:40;;;;;;;2.50;0.80;;;27.60;92.80;;;;;;5049664;28;20029;-67
2022/09/08 12:47:25;;;;;;;5.85;1.20;;;28.90;90.90;;;;;;5024138;28;20147;-67
2022/09/08 12:50:16;;;;;;;5.10;1.00;;;29.30;90.50;;;;;;5030941;28;20017;-68
2022/09/08 12:53:19;;;;;;;3.92;1.10;;;28.90;90.30;;;;;;5028433;28;20030;-67
2022/09/08 12:55:59;;;;;;;3.15;1.10;;;29.70;88.00;;;;;;5024102;28;20039;-67
2022/09/08 12:58:32;;;;;;;3.88;1.15;;;25.70;93.10;;;;;;5034278;28;20120;-67
2022/09/08 13:01:12;;;;;;;6.32;1.52;;;24.60;95.80;;;;;;5031904;28;20053;-68
2022/09/08 13:03:40;;;;;;;3.33;1.15;;;23.60;99.90;;;;;;5031206;28;20064;-67
2022/09/08 13:06:24;;;;;;;4.70;1.15;;;22.80;99.90;;;;;;5029924;28;20401;-68
2022/09/08 13:09:14;;;;;;;3.70;1.02;;;22.40;99.90;;;;;;5037197;28;20034;-68
2022/09/08 13:12:01;;;;;;;5.95;1.15;;;22.40;99.90;;;;;;5030107;28;20127;-68
2022/09/08 13:14:49;;;;;;;3.70;1.33;;;22.40;99.90;;;;;;5047487;28;20034;-68
2022/09/08 13:17:31;;;;;;;3.25;1.10;;;22.30;99.90;;;;;;5032683;28;20025;-68
2022/09/08 13:20:35;;;;;;;6.90;1.50;;;22.00;99.90;;;;;;5023443;28;20040;-69
2022/09/08 13:23:17;;;;;;;3.78;1.33;;;21.90;99.90;;;;;;5023934;28;20053;-69
2022/09/08 13:25:54;;;;;;;5.18;1.20;;;22.00;99.90;;;;;;5042986;28;20028;-69
2022/09/08 13:28:53;;;;;;;3.83;1.17;;;21.60;99.90;;;;;;5049373;28;20042;-69
2022/09/08 13:31:54;;;;;;;3.80;1.20;;;21.60;99.90;;;;;;5033205;28;20036;-70